Ralston, Pennsylvania
Current Conditions -  °F | °C
As of 9:54 PM on Saturday 20 Dec 2014 (Local Time) from KIPT Reporting Station
Overcast Overcast  
Wind Chill: 31°   Ceiling: 3200
Heat Index: 31°   Visibility: 10mi
Dew Point: 21°   Wind: 3mph
Humidity: 67%   Direction: 260°W
Pressure: 30.28"   Gusts: NA
Location:  41.51°N, 76.95°W
Report Text: KIPT 210254Z 26003KT 10SM OVC032 M01/M06 A3028 RMK AO2 SLP259 T10061061 53001
Loading
Personal Weather Stations






























Interactive Weather Map New forecast layout! Learn more

10-Day Weather Forecast

Advertisements
Track Severe Weather on mobile